createdAt,value
2019-03-23T00:00:16.052Z,222.82
2019-03-23T00:02:44.812Z,228.30
2019-03-23T00:05:14.944Z,252.62
2019-03-23T00:07:44.247Z,210.02
2019-03-23T00:10:12.764Z,206.90
2019-03-23T00:12:41.500Z,243.10
2019-03-23T00:15:12.323Z,214.70
2019-03-23T00:17:40.842Z,195.57
2019-03-23T00:20:09.885Z,206.40
2019-03-23T00:22:38.451Z,190.38
2019-03-23T00:25:07.337Z,182.53
2019-03-23T00:27:36.803Z,197.32
2019-03-23T00:30:08.882Z,199.15
2019-03-23T00:32:38.616Z,207.85
2019-03-23T00:35:07.434Z,177.10
2019-03-23T00:37:36.065Z,151.12
2019-03-23T00:40:07.701Z,176.45
2019-03-23T00:42:36.960Z,167.03
2019-03-23T00:45:07.696Z,154.12
2019-03-23T00:47:36.439Z,150.18
2019-03-23T00:50:06.116Z,151.55
2019-03-23T00:52:34.604Z,155.72
2019-03-23T00:55:05.196Z,150.47
2019-03-23T00:57:33.443Z,142.07
2019-03-23T01:00:02.605Z,152.07
2019-03-23T01:02:31.347Z,129.15
2019-03-23T01:05:02.613Z,144.60
2019-03-23T01:07:31.444Z,128.00
2019-03-23T01:10:00.720Z,133.43
2019-03-23T01:12:29.599Z,122.85
2019-03-23T01:14:59.835Z,123.30
2019-03-23T01:17:28.452Z,115.45
2019-03-23T01:19:57.801Z,115.82
2019-03-23T01:22:26.596Z,114.22
2019-03-23T01:24:55.381Z,120.70
2019-03-23T01:27:24.119Z,119.95
2019-03-23T01:29:53.513Z,122.58
2019-03-23T01:32:22.113Z,118.57
2019-03-23T01:34:50.959Z,109.20
2019-03-23T01:37:21.461Z,108.72
2019-03-23T01:39:50.089Z,111.20
2019-03-23T01:42:18.837Z,122.60
2019-03-23T01:44:47.303Z,117.17
2019-03-23T01:47:15.791Z,120.05
2019-03-23T01:49:46.050Z,115.47
2019-03-23T01:52:14.805Z,118.72
2019-03-23T01:54:43.589Z,132.25
2019-03-23T01:57:12.362Z,115.20
2019-03-23T01:59:41.919Z,111.92
2019-03-23T02:02:10.776Z,106.15
2019-03-23T02:04:39.665Z,122.80
2019-03-23T02:07:16.117Z,113.20
2019-03-23T02:09:44.873Z,107.52
2019-03-23T02:12:14.277Z,124.55
2019-03-23T02:14:42.803Z,124.58
2019-03-23T02:17:11.550Z,117.53
2019-03-23T02:19:41.797Z,117.42
2019-03-23T02:22:10.293Z,114.35
2019-03-23T02:24:39.096Z,109.03
2019-03-23T02:27:07.844Z,118.42
2019-03-23T02:29:36.607Z,109.05
2019-03-23T02:32:05.431Z,108.25
2019-03-23T02:34:34.206Z,108.45
2019-03-23T02:37:03.156Z,115.25
2019-03-23T02:39:31.939Z,120.00
2019-03-23T02:42:02.324Z,113.57
2019-03-23T02:44:31.215Z,111.08
2019-03-23T02:47:02.543Z,113.32
2019-03-23T02:49:31.052Z,115.15
2019-03-23T02:51:59.878Z,117.15
2019-03-23T02:54:30.055Z,118.17
2019-03-23T02:57:00.085Z,107.70
2019-03-23T02:59:28.701Z,114.90
2019-03-23T03:01:59.245Z,123.85
2019-03-23T03:04:28.065Z,113.35
2019-03-23T03:06:57.919Z,113.10
2019-03-23T03:09:26.688Z,114.37
2019-03-23T03:11:55.473Z,124.55
2019-03-23T03:14:23.940Z,116.82
2019-03-23T03:16:55.028Z,120.25
2019-03-23T03:19:25.061Z,108.78
2019-03-23T03:21:53.864Z,119.28
2019-03-23T03:24:22.584Z,118.47
2019-03-23T03:26:51.177Z,119.70
2019-03-23T03:29:19.631Z,126.30
2019-03-23T03:31:48.199Z,121.37
2019-03-23T03:34:17.137Z,111.65
2019-03-23T03:36:45.702Z,120.60
2019-03-23T03:39:14.576Z,120.67
2019-03-23T03:41:43.752Z,126.58
2019-03-23T03:44:15.345Z,126.50
2019-03-23T03:46:43.952Z,124.70
2019-03-23T03:49:13.180Z,115.75
2019-03-23T03:51:42.073Z,124.10
2019-03-23T03:54:10.920Z,112.20
2019-03-23T03:56:39.377Z,113.72
2019-03-23T03:59:08.146Z,116.95
2019-03-23T04:01:36.811Z,121.30
2019-03-23T04:04:05.589Z,121.87
2019-03-23T04:06:34.048Z,114.77
2019-03-23T04:09:05.298Z,114.95
2019-03-23T04:11:33.749Z,120.13
2019-03-23T04:14:02.509Z,112.85
2019-03-23T04:16:31.397Z,120.67
2019-03-23T04:18:59.892Z,110.17
2019-03-23T04:21:28.633Z,113.30
2019-03-23T04:23:59.002Z,119.33
2019-03-23T04:26:30.564Z,108.47
2019-03-23T04:29:00.211Z,110.83
2019-03-23T04:31:29.891Z,113.42
2019-03-23T04:33:58.438Z,118.75
2019-03-23T04:36:26.965Z,123.75
2019-03-23T04:38:56.361Z,116.97
2019-03-23T04:41:24.932Z,112.30
2019-03-23T04:43:53.510Z,116.30
2019-03-23T04:46:22.037Z,121.80
2019-03-23T04:48:50.507Z,117.17
2019-03-23T04:51:22.796Z,133.87
2019-03-23T04:53:51.585Z,123.25
2019-03-23T04:56:20.372Z,124.40
2019-03-23T04:58:48.886Z,133.32
2019-03-23T05:01:17.726Z,133.10
2019-03-23T05:03:46.537Z,117.28
2019-03-23T05:06:16.741Z,134.85
2019-03-23T05:08:45.519Z,138.52
2019-03-23T05:11:14.345Z,129.95
2019-03-23T05:13:44.053Z,145.57
2019-03-23T05:16:12.807Z,134.63
2019-03-23T05:18:41.647Z,142.35
2019-03-23T05:21:10.825Z,127.30
2019-03-23T05:23:40.605Z,140.73
2019-03-23T05:26:11.378Z,127.87
2019-03-23T05:28:40.006Z,141.00
2019-03-23T05:31:08.493Z,138.50
2019-03-23T05:33:37.035Z,127.42
2019-03-23T05:36:05.843Z,123.78
2019-03-23T05:38:43.796Z,132.40
2019-03-23T05:41:04.983Z,131.22
2019-03-23T05:43:33.837Z,118.82
2019-03-23T05:46:02.886Z,128.75
2019-03-23T05:48:31.468Z,122.28
2019-03-23T05:51:01.473Z,136.80
2019-03-23T05:53:31.323Z,130.18
2019-03-23T05:56:00.111Z,120.35
2019-03-23T05:58:28.655Z,141.68
2019-03-23T06:00:57.383Z,137.57
2019-03-23T06:03:26.141Z,133.57
2019-03-23T06:05:54.937Z,118.60
2019-03-23T06:08:25.899Z,139.20
2019-03-23T06:10:58.024Z,131.47
2019-03-23T06:13:26.811Z,146.55
2019-03-23T06:15:56.345Z,113.47
2019-03-23T06:18:24.875Z,131.82
2019-03-23T06:20:53.512Z,129.85
2019-03-23T06:23:22.395Z,138.32
2019-03-23T06:25:51.378Z,143.40
2019-03-23T06:28:22.365Z,151.00
2019-03-23T06:30:50.869Z,140.20
2019-03-23T06:33:21.691Z,146.80
2019-03-23T06:35:51.183Z,129.32
2019-03-23T06:38:21.549Z,133.70
2019-03-23T06:40:50.441Z,136.37
2019-03-23T06:43:19.174Z,126.40
2019-03-23T06:45:47.718Z,136.77
2019-03-23T06:48:16.438Z,137.43
2019-03-23T06:50:45.185Z,142.25
2019-03-23T06:53:13.937Z,129.32
2019-03-23T06:55:42.393Z,141.68
2019-03-23T06:58:10.841Z,125.55
2019-03-23T07:00:39.563Z,131.25
2019-03-23T07:03:08.019Z,128.35
2019-03-23T07:05:36.467Z,138.18
2019-03-23T07:08:04.999Z,126.05
2019-03-23T07:10:33.723Z,127.53
2019-03-23T07:13:02.655Z,121.87
2019-03-23T07:15:32.763Z,122.40
2019-03-23T07:18:03.051Z,139.25
2019-03-23T07:20:34.584Z,128.45
2019-03-23T07:23:03.419Z,138.80
2019-03-23T07:25:31.948Z,129.57
2019-03-23T07:28:03.246Z,136.45
2019-03-23T07:30:33.301Z,117.60
2019-03-23T07:33:01.794Z,134.45
2019-03-23T07:35:30.326Z,129.10
2019-03-23T07:37:59.247Z,122.78
2019-03-23T07:40:28.005Z,131.10
2019-03-23T07:42:58.911Z,132.43
2019-03-23T07:45:27.691Z,137.37
2019-03-23T07:47:56.401Z,128.45
2019-03-23T07:50:24.864Z,129.97
2019-03-23T07:52:53.351Z,120.65
2019-03-23T07:55:23.347Z,133.60
2019-03-23T07:57:52.102Z,132.32
2019-03-23T08:00:21.774Z,136.90
2019-03-23T08:02:50.291Z,139.25
2019-03-23T08:05:18.820Z,133.50
2019-03-23T08:07:47.341Z,123.62
2019-03-23T08:10:30.653Z,133.72
2019-03-23T08:12:59.639Z,126.67
2019-03-23T08:15:28.594Z,132.90
2019-03-23T08:17:58.709Z,125.75
2019-03-23T08:20:27.445Z,128.38
2019-03-23T08:22:56.168Z,143.78
2019-03-23T08:25:24.705Z,118.50
2019-03-23T08:27:55.898Z,124.15
2019-03-23T08:30:24.740Z,134.47
2019-03-23T08:32:53.238Z,125.42
2019-03-23T08:35:21.711Z,137.65
2019-03-23T08:37:50.457Z,126.65
2019-03-23T08:40:21.835Z,114.20
2019-03-23T08:42:50.594Z,122.53
2019-03-23T08:45:19.299Z,120.17
2019-03-23T08:47:48.034Z,119.55
2019-03-23T08:50:16.764Z,133.93
2019-03-23T08:52:45.248Z,121.40
2019-03-23T08:55:13.711Z,127.17
2019-03-23T08:57:42.280Z,112.32
2019-03-23T09:00:11.332Z,130.80
2019-03-23T09:02:40.588Z,120.33
2019-03-23T09:05:09.157Z,121.90
2019-03-23T09:07:37.961Z,118.87
2019-03-23T09:10:07.587Z,118.08
2019-03-23T09:12:36.545Z,113.45
2019-03-23T09:15:11.076Z,114.70
2019-03-23T09:17:39.798Z,119.30
2019-03-23T09:20:10.368Z,112.83
2019-03-23T09:22:38.833Z,113.25
2019-03-23T09:25:07.632Z,107.70
2019-03-23T09:27:37.872Z,110.35
2019-03-23T09:30:11.992Z,111.30
2019-03-23T09:32:40.684Z,101.80
2019-03-23T09:35:09.389Z,106.50
2019-03-23T09:37:38.494Z,110.97
2019-03-23T09:40:10.946Z,108.12
2019-03-23T09:42:41.258Z,103.95
2019-03-23T09:45:10.119Z,108.67
2019-03-23T09:47:40.369Z,99.47
2019-03-23T09:50:13.651Z,106.63
2019-03-23T09:52:43.685Z,94.90
2019-03-23T09:55:12.447Z,97.02
2019-03-23T09:57:40.912Z,106.58
2019-03-23T10:00:12.226Z,100.72
2019-03-23T10:02:41.909Z,101.70
2019-03-23T10:05:10.785Z,101.78
2019-03-23T10:07:39.535Z,98.05
2019-03-23T10:10:20.951Z,97.47
2019-03-23T10:12:41.366Z,102.80
2019-03-23T10:15:10.417Z,98.10
2019-03-23T10:17:39.315Z,95.77
2019-03-23T10:20:09.865Z,95.03
2019-03-23T10:22:39.345Z,85.90
2019-03-23T10:25:08.229Z,94.22
2019-03-23T10:27:36.945Z,90.45
2019-03-23T10:30:07.739Z,86.90
2019-03-23T10:32:37.759Z,88.70
2019-03-23T10:35:08.637Z,92.85
2019-03-23T10:37:37.670Z,91.63
2019-03-23T10:40:10.923Z,92.57
2019-03-23T10:42:39.697Z,95.55
2019-03-23T10:45:09.605Z,89.32
2019-03-23T10:47:38.480Z,91.87
2019-03-23T10:50:07.677Z,92.02
2019-03-23T10:52:36.175Z,98.58
2019-03-23T10:55:06.599Z,96.53
2019-03-23T10:57:35.354Z,91.95
2019-03-23T11:00:10.413Z,94.05
2019-03-23T11:02:40.235Z,89.65
2019-03-23T11:05:09.721Z,90.77
2019-03-23T11:07:38.337Z,86.05
2019-03-23T11:10:09.671Z,87.75
2019-03-23T11:12:38.575Z,85.50
2019-03-23T11:15:09.243Z,90.57
2019-03-23T11:17:38.079Z,91.05
2019-03-23T11:20:10.839Z,87.25
2019-03-23T11:22:39.622Z,89.30
2019-03-23T11:25:09.163Z,89.83
2019-03-23T11:27:38.050Z,82.30
2019-03-23T11:30:11.624Z,83.52
2019-03-23T11:32:40.405Z,79.85
2019-03-23T11:35:09.405Z,84.77
2019-03-23T11:37:38.532Z,84.35
2019-03-23T11:40:14.322Z,84.47
2019-03-23T11:42:49.755Z,83.97
2019-03-23T11:45:13.880Z,79.82
2019-03-23T11:47:43.773Z,79.50
2019-03-23T11:50:12.822Z,80.65
2019-03-23T11:52:41.636Z,80.92
2019-03-23T11:55:10.691Z,82.65
2019-03-23T11:57:39.252Z,79.15
2019-03-23T12:00:13.690Z,84.65
2019-03-23T12:02:45.186Z,82.90
2019-03-23T12:05:14.928Z,78.90
2019-03-23T12:07:43.750Z,76.05
2019-03-23T12:10:13.544Z,89.58
2019-03-23T12:12:44.455Z,74.35
2019-03-23T12:15:14.077Z,82.40
2019-03-23T12:17:43.472Z,83.62
2019-03-23T12:20:13.735Z,72.32
2019-03-23T12:22:44.125Z,77.08
2019-03-23T12:25:13.746Z,74.65
2019-03-23T12:27:45.378Z,71.90
2019-03-23T12:30:16.845Z,72.53
2019-03-23T12:32:45.711Z,72.35
2019-03-23T12:35:14.274Z,72.78
2019-03-23T12:37:43.085Z,74.55
2019-03-23T12:40:12.158Z,72.95
2019-03-23T12:42:40.998Z,74.25
2019-03-23T12:45:11.679Z,77.82
2019-03-23T12:47:40.619Z,73.45
2019-03-23T12:50:10.727Z,73.55
2019-03-23T12:52:39.605Z,68.20
2019-03-23T12:55:08.441Z,67.60
2019-03-23T12:57:36.992Z,67.17
2019-03-23T13:00:14.585Z,70.52
2019-03-23T13:02:43.115Z,71.57
2019-03-23T13:05:13.496Z,71.95
2019-03-23T13:07:41.970Z,72.95
2019-03-23T13:10:12.503Z,67.90
2019-03-23T13:12:41.400Z,65.10
2019-03-23T13:15:12.571Z,67.22
2019-03-23T13:17:41.309Z,69.37
2019-03-23T13:20:11.403Z,71.80
2019-03-23T13:22:40.235Z,69.15
2019-03-23T13:25:09.518Z,68.95
2019-03-23T13:27:37.969Z,62.62
2019-03-23T13:30:13.022Z,64.27
2019-03-23T13:32:41.822Z,59.65
2019-03-23T13:35:13.398Z,59.65
2019-03-23T13:37:41.947Z,61.80
2019-03-23T13:40:11.972Z,64.32
2019-03-23T13:42:40.842Z,74.62
2019-03-23T13:45:10.405Z,68.30
2019-03-23T13:47:40.128Z,70.20
2019-03-23T13:50:09.980Z,60.60
2019-03-23T13:52:38.523Z,61.83
2019-03-23T13:55:07.766Z,64.20
2019-03-23T13:57:36.300Z,57.40
2019-03-23T14:00:08.368Z,58.87
2019-03-23T14:02:37.218Z,47.98
2019-03-23T14:05:12.223Z,48.15
2019-03-23T14:07:37.824Z,49.67
2019-03-23T14:10:07.037Z,49.10
2019-03-23T14:12:35.904Z,56.42
2019-03-23T14:15:07.180Z,54.88
2019-03-23T14:17:36.024Z,55.08
2019-03-23T14:20:06.145Z,63.60
2019-03-23T14:22:34.869Z,51.88
2019-03-23T14:25:06.355Z,60.30
2019-03-23T14:27:35.105Z,62.20
2019-03-23T14:30:05.983Z,58.48
2019-03-23T14:32:34.918Z,54.45
2019-03-23T14:35:03.901Z,58.55
2019-03-23T14:37:33.921Z,54.85
2019-03-23T14:40:02.464Z,51.30
2019-03-23T14:42:31.122Z,52.78
2019-03-23T14:44:59.982Z,50.25
2019-03-23T14:47:28.573Z,51.10
2019-03-23T14:49:57.281Z,48.78
2019-03-23T14:52:25.999Z,49.33
2019-03-23T14:54:54.828Z,50.40
2019-03-23T14:57:23.546Z,47.83
2019-03-23T14:59:52.021Z,48.17
2019-03-23T15:02:20.663Z,45.52
2019-03-23T15:04:49.382Z,47.38
2019-03-23T15:07:18.156Z,42.98
2019-03-23T15:09:47.353Z,51.77
2019-03-23T15:12:15.814Z,41.10
2019-03-23T15:14:44.421Z,42.33
2019-03-23T15:17:12.902Z,40.75
2019-03-23T15:19:43.896Z,37.10
2019-03-23T15:22:12.705Z,47.40
2019-03-23T15:24:42.535Z,40.65
2019-03-23T15:27:11.260Z,37.83
2019-03-23T15:29:40.099Z,39.88
2019-03-23T15:32:08.564Z,36.88
2019-03-23T15:34:37.011Z,50.95
2019-03-23T15:37:05.634Z,67.67
2019-03-23T15:39:35.687Z,74.05
2019-03-23T15:42:05.695Z,67.65
2019-03-23T15:44:34.184Z,66.60
2019-03-23T15:47:03.685Z,69.00
2019-03-23T15:49:32.188Z,70.60
2019-03-23T15:52:02.565Z,69.32
2019-03-23T15:54:31.025Z,62.15
2019-03-23T15:56:59.829Z,63.40
2019-03-23T15:59:28.630Z,68.15
2019-03-23T16:01:58.785Z,56.90
2019-03-23T16:04:27.282Z,67.20
2019-03-23T16:06:57.896Z,67.22
2019-03-23T16:09:26.353Z,60.95
2019-03-23T16:11:55.129Z,61.35
2019-03-23T16:14:23.911Z,64.47
2019-03-23T16:16:54.688Z,62.67
2019-03-23T16:19:23.195Z,58.28
2019-03-23T16:21:52.055Z,64.92
2019-03-23T16:24:20.888Z,65.90
2019-03-23T16:26:49.770Z,63.80
2019-03-23T16:29:18.281Z,60.28
2019-03-23T16:31:46.740Z,58.00
2019-03-23T16:34:15.648Z,61.77
2019-03-23T16:36:46.900Z,59.15
2019-03-23T16:39:15.619Z,62.88
2019-03-23T16:41:44.482Z,58.23
2019-03-23T16:44:20.845Z,66.35
2019-03-23T16:46:49.426Z,61.53
2019-03-23T16:49:17.890Z,53.98
2019-03-23T16:51:46.349Z,55.33
2019-03-23T16:54:17.814Z,54.20
2019-03-23T16:57:28.700Z,62.45
2019-03-23T16:59:57.506Z,60.83
2019-03-23T17:02:26.437Z,56.25
2019-03-23T17:04:55.737Z,50.83
2019-03-23T17:07:25.714Z,45.35
2019-03-23T17:09:54.552Z,49.63
2019-03-23T17:12:24.558Z,46.28
2019-03-23T17:14:53.107Z,56.90
2019-03-23T17:17:21.954Z,40.83
2019-03-23T17:19:50.718Z,32.08
2019-03-23T17:22:19.193Z,31.05
2019-03-23T17:24:47.644Z,30.00
2019-03-23T17:27:16.363Z,21.37
2019-03-23T17:29:45.088Z,21.12
2019-03-23T17:32:14.678Z,26.27
2019-03-23T17:34:43.155Z,25.70
2019-03-23T17:37:16.420Z,22.40
2019-03-23T17:39:45.236Z,18.50
2019-03-23T17:42:13.728Z,17.95
2019-03-23T17:44:46.162Z,23.60
2019-03-23T17:47:15.004Z,22.05
2019-03-23T17:49:43.821Z,19.67
2019-03-23T17:52:13.708Z,20.65
2019-03-23T17:54:42.242Z,20.55
2019-03-23T17:57:10.720Z,33.13
2019-03-23T17:59:39.455Z,18.67
2019-03-23T18:02:07.987Z,15.43
2019-03-23T18:04:36.824Z,26.15
2019-03-23T18:07:05.619Z,19.75
2019-03-23T18:09:34.371Z,17.57
2019-03-23T18:12:03.106Z,24.82
2019-03-23T18:14:31.913Z,18.05
2019-03-23T18:17:00.384Z,15.03
2019-03-23T18:19:30.632Z,16.32
2019-03-23T18:22:00.368Z,21.50
2019-03-23T18:24:29.089Z,23.38
2019-03-23T18:26:57.583Z,19.12
2019-03-23T18:29:27.560Z,20.37
2019-03-23T18:31:56.022Z,18.57
2019-03-23T18:34:24.889Z,21.70
2019-03-23T18:36:55.585Z,20.35
2019-03-23T18:39:24.106Z,16.70
2019-03-23T18:41:55.739Z,22.17
2019-03-23T18:44:24.789Z,11.43
2019-03-23T18:46:58.132Z,21.62
2019-03-23T18:49:26.622Z,20.25
2019-03-23T18:51:56.851Z,19.62
2019-03-23T18:54:25.697Z,22.17
2019-03-23T18:56:54.425Z,22.07
2019-03-23T18:59:27.232Z,22.90
2019-03-23T19:01:55.944Z,14.45
2019-03-23T19:04:25.875Z,27.77
2019-03-23T19:06:54.353Z,20.35
2019-03-23T19:09:22.905Z,20.97
2019-03-23T19:11:51.459Z,14.38
2019-03-23T19:14:19.908Z,17.45
2019-03-23T19:16:48.378Z,19.65
2019-03-23T19:19:19.191Z,22.90
2019-03-23T19:21:50.759Z,17.65
2019-03-23T19:24:19.514Z,21.00
2019-03-23T19:26:47.969Z,22.87
2019-03-23T19:29:17.531Z,24.47
2019-03-23T19:31:48.105Z,15.83
2019-03-23T19:34:16.596Z,22.48
2019-03-23T19:36:45.371Z,25.52
2019-03-23T19:39:14.160Z,20.20
2019-03-23T19:41:42.615Z,19.67
2019-03-23T19:44:13.481Z,21.68
2019-03-23T19:46:42.051Z,24.52
2019-03-23T19:49:10.815Z,24.40
2019-03-23T19:51:39.349Z,29.02
2019-03-23T19:54:09.161Z,22.58
2019-03-23T19:56:39.486Z,16.93
2019-03-23T19:59:07.938Z,29.80
2019-03-23T20:01:36.423Z,18.73
2019-03-23T20:04:05.129Z,16.90
2019-03-23T20:06:35.309Z,15.72
2019-03-23T20:09:05.345Z,24.37
2019-03-23T20:11:33.901Z,22.35
2019-03-23T20:14:02.722Z,19.30
2019-03-23T20:16:31.282Z,29.70
2019-03-23T20:18:59.744Z,25.43
2019-03-23T20:21:28.549Z,25.37
2019-03-23T20:23:58.653Z,19.15
2019-03-23T20:26:30.442Z,30.55
2019-03-23T20:28:59.323Z,22.40
2019-03-23T20:31:27.898Z,23.75
2019-03-23T20:33:57.255Z,19.23
2019-03-23T20:36:25.707Z,25.50
2019-03-23T20:38:54.181Z,24.25
2019-03-23T20:41:22.641Z,32.50
2019-03-23T20:43:51.180Z,34.67
2019-03-23T20:46:19.721Z,26.27
2019-03-23T20:48:48.235Z,20.17
2019-03-23T20:51:17.225Z,30.00
2019-03-23T20:53:46.077Z,20.68
2019-03-23T20:56:14.865Z,21.95
2019-03-23T20:58:43.589Z,25.68
2019-03-23T21:01:12.927Z,28.67
2019-03-23T21:03:42.418Z,20.80
2019-03-23T21:06:13.779Z,21.77
2019-03-23T21:08:42.513Z,19.48
2019-03-23T21:11:10.961Z,22.37
2019-03-23T21:13:39.425Z,18.60
2019-03-23T21:16:08.927Z,23.12
2019-03-23T21:18:38.569Z,21.48
2019-03-23T21:21:09.417Z,21.70
2019-03-23T21:23:38.992Z,27.77
2019-03-23T21:26:07.584Z,26.85
2019-03-23T21:28:36.370Z,18.70
2019-03-23T21:31:07.385Z,26.60
2019-03-23T21:33:38.940Z,25.30
2019-03-23T21:36:07.388Z,21.50
2019-03-23T21:38:35.928Z,20.80
2019-03-23T21:41:04.932Z,21.17
2019-03-23T21:43:33.669Z,17.40
2019-03-23T21:46:02.268Z,18.17
2019-03-23T21:48:30.806Z,26.82
2019-03-23T21:51:00.383Z,29.75
2019-03-23T21:53:29.226Z,27.32
2019-03-23T21:55:58.124Z,18.15
2019-03-23T21:58:26.868Z,22.25
2019-03-23T22:00:55.668Z,20.35
2019-03-23T22:03:24.499Z,32.55
2019-03-23T22:05:53.264Z,29.85
2019-03-23T22:08:21.787Z,24.63
2019-03-23T22:10:54.611Z,17.92
2019-03-23T22:13:23.414Z,19.80
2019-03-23T22:15:52.202Z,32.80
2019-03-23T22:18:20.659Z,23.38
2019-03-23T22:20:49.390Z,13.93
2019-03-23T22:23:18.272Z,20.30
2019-03-23T22:25:46.724Z,16.48
2019-03-23T22:28:15.426Z,31.40
2019-03-23T22:30:45.434Z,24.65
2019-03-23T22:33:14.248Z,26.17
2019-03-23T22:35:43.005Z,24.87
2019-03-23T22:38:15.614Z,23.02
2019-03-23T22:40:44.476Z,24.12
2019-03-23T22:43:15.031Z,21.27
2019-03-23T22:45:43.828Z,22.27
2019-03-23T22:48:12.365Z,20.27
2019-03-23T22:50:43.018Z,24.00
2019-03-23T22:53:13.868Z,19.92
2019-03-23T22:55:45.142Z,27.90
2019-03-23T22:58:13.940Z,32.85
2019-03-23T23:00:44.422Z,21.00
2019-03-23T23:03:14.796Z,22.27
2019-03-23T23:05:46.384Z,15.85
2019-03-23T23:08:15.360Z,29.80
2019-03-23T23:10:43.820Z,23.55
2019-03-23T23:13:13.141Z,28.75
2019-03-23T23:15:41.998Z,29.87
2019-03-23T23:18:10.455Z,24.82
2019-03-23T23:20:39.248Z,28.40
2019-03-23T23:23:08.073Z,27.85
2019-03-23T23:25:36.809Z,24.90
2019-03-23T23:28:05.362Z,29.02
2019-03-23T23:30:35.576Z,27.25
2019-03-23T23:33:04.066Z,28.00
2019-03-23T23:35:39.911Z,27.20
2019-03-23T23:38:09.610Z,19.85
2019-03-23T23:40:38.141Z,27.75
2019-03-23T23:43:08.551Z,24.35
2019-03-23T23:45:38.148Z,21.35
2019-03-23T23:48:06.682Z,20.17
2019-03-23T23:50:35.123Z,21.15
2019-03-23T23:53:03.954Z,29.37
2019-03-23T23:55:32.481Z,18.90
2019-03-23T23:58:01.270Z,21.97
